createdAt,value
2018-07-11T00:01:14.974Z,94.50
2018-07-11T00:03:46.137Z,94.90
2018-07-11T00:06:15.872Z,94.60
2018-07-11T00:08:44.246Z,94.50
2018-07-11T00:11:12.893Z,94.40
2018-07-11T00:13:43.529Z,94.30
2018-07-11T00:16:12.657Z,93.80
2018-07-11T00:18:41.052Z,94.90
2018-07-11T00:21:09.477Z,95.00
2018-07-11T00:23:38.000Z,94.50
2018-07-11T00:26:07.420Z,95.10
2018-07-11T00:28:35.789Z,94.60
2018-07-11T00:31:04.193Z,94.60
2018-07-11T00:36:01.020Z,94.60
2018-07-11T00:38:29.625Z,93.90
2018-07-11T00:40:58.852Z,95.00
2018-07-11T00:43:28.064Z,94.60
2018-07-11T00:45:56.505Z,94.90
2018-07-11T00:48:24.889Z,94.40
2018-07-11T00:50:53.273Z,95.10
2018-07-11T00:53:22.724Z,94.70
2018-07-11T00:55:51.148Z,94.30
2018-07-11T00:59:28.892Z,94.70
2018-07-11T01:02:02.288Z,95.50
2018-07-11T01:04:30.748Z,95.90
2018-07-11T01:07:00.743Z,95.70
2018-07-11T01:09:30.582Z,95.50
2018-07-11T01:11:59.025Z,95.70
2018-07-11T01:14:27.470Z,94.90
2018-07-11T01:16:55.904Z,94.90
2018-07-11T01:19:24.361Z,94.90
2018-07-11T01:22:01.588Z,94.90
2018-07-11T01:24:31.134Z,94.60
2018-07-11T01:27:00.245Z,94.70
2018-07-11T01:29:28.624Z,94.20
2018-07-11T01:31:57.039Z,93.40
2018-07-11T01:34:25.384Z,93.70
2018-07-11T01:36:53.805Z,94.10
2018-07-11T01:39:22.220Z,94.00
2018-07-11T01:41:50.774Z,93.90
2018-07-11T01:44:19.129Z,93.70
2018-07-11T01:46:48.857Z,94.40
2018-07-11T01:49:17.274Z,94.60
2018-07-11T01:51:57.654Z,94.70
2018-07-11T01:54:26.857Z,95.80
2018-07-11T01:56:55.248Z,96.30
2018-07-11T01:59:27.056Z,96.70
2018-07-11T02:01:55.789Z,96.70
2018-07-11T02:04:24.208Z,96.90
2018-07-11T02:06:52.800Z,96.40
2018-07-11T02:09:21.234Z,96.40
2018-07-11T02:11:49.677Z,96.30
2018-07-11T02:14:18.160Z,95.90
2018-07-11T02:16:46.595Z,95.80
2018-07-11T02:19:15.368Z,95.50
2018-07-11T02:21:43.808Z,95.10
2018-07-11T02:24:12.189Z,95.30
2018-07-11T02:26:40.601Z,95.20
2018-07-11T02:29:09.036Z,95.10
2018-07-11T02:31:37.423Z,94.90
2018-07-11T02:34:05.885Z,95.20
2018-07-11T02:36:34.265Z,95.40
2018-07-11T02:39:02.761Z,95.30
2018-07-11T02:41:31.149Z,95.50
2018-07-11T02:43:59.549Z,95.10
2018-07-11T02:46:33.338Z,94.70
2018-07-11T02:49:01.765Z,94.80
2018-07-11T02:51:30.192Z,94.80
2018-07-11T02:53:59.170Z,95.30
2018-07-11T02:56:27.570Z,94.80
2018-07-11T02:58:55.940Z,95.50
2018-07-11T03:01:24.289Z,96.60
2018-07-11T03:03:53.314Z,95.40
2018-07-11T03:06:21.667Z,94.80
2018-07-11T03:08:50.049Z,95.10
2018-07-11T03:11:18.409Z,95.30
2018-07-11T03:13:46.780Z,96.00
2018-07-11T03:17:18.376Z,96.40
2018-07-11T03:19:46.782Z,96.80
2018-07-11T03:22:15.502Z,97.60
2018-07-11T03:24:44.006Z,97.80
2018-07-11T03:27:12.601Z,98.50
2018-07-11T03:29:41.229Z,98.40
2018-07-11T03:32:09.634Z,98.70
2018-07-11T03:34:38.022Z,98.60
2018-07-11T03:37:06.513Z,98.30
2018-07-11T03:39:34.941Z,98.00
2018-07-11T03:42:03.369Z,98.40
2018-07-11T03:44:31.800Z,98.00
2018-07-11T03:47:00.181Z,97.90
2018-07-11T03:49:28.545Z,97.80
2018-07-11T03:51:56.900Z,97.80
2018-07-11T03:54:25.374Z,97.80
2018-07-11T03:56:53.701Z,97.60
2018-07-11T03:59:22.087Z,96.80
2018-07-11T04:01:50.413Z,97.20
2018-07-11T04:04:18.765Z,97.20
2018-07-11T04:06:47.096Z,97.30
2018-07-11T04:09:15.485Z,97.60
2018-07-11T04:11:43.857Z,97.80
2018-07-11T04:14:15.100Z,98.20
2018-07-11T04:16:43.457Z,97.80
2018-07-11T04:19:11.866Z,97.80
2018-07-11T04:21:40.133Z,97.40
2018-07-11T04:24:08.540Z,98.00
2018-07-11T04:26:36.949Z,97.80
2018-07-11T04:29:05.337Z,97.80
2018-07-11T04:31:33.705Z,97.90
2018-07-11T04:34:02.096Z,98.00
2018-07-11T04:36:30.462Z,97.90
2018-07-11T04:38:58.869Z,97.70
2018-07-11T04:41:27.244Z,98.10
2018-07-11T04:43:55.644Z,98.10
2018-07-11T04:46:24.053Z,97.80
2018-07-11T04:48:52.456Z,97.70
2018-07-11T04:51:20.861Z,97.60
2018-07-11T04:53:49.299Z,97.70
2018-07-11T04:56:17.702Z,97.70
2018-07-11T04:58:46.128Z,97.50
2018-07-11T05:01:14.416Z,97.30
2018-07-11T05:03:42.796Z,97.60
2018-07-11T05:06:11.137Z,97.40
2018-07-11T05:08:39.493Z,97.50
2018-07-11T05:11:07.889Z,97.70
2018-07-11T05:13:36.333Z,97.80
2018-07-11T05:16:04.737Z,98.20
2018-07-11T05:18:33.084Z,98.00
2018-07-11T05:21:01.432Z,97.90
2018-07-11T05:23:29.765Z,98.30
2018-07-11T05:25:58.084Z,98.20
2018-07-11T05:28:26.419Z,97.30
2018-07-11T05:30:54.764Z,96.70
2018-07-11T05:33:23.098Z,97.00
2018-07-11T05:35:51.469Z,96.80
2018-07-11T05:38:19.850Z,96.90
2018-07-11T05:40:48.337Z,96.80
2018-07-11T05:43:16.724Z,97.60
2018-07-11T05:45:45.076Z,97.60
2018-07-11T05:48:13.434Z,97.70
2018-07-11T05:50:41.749Z,97.80
2018-07-11T05:53:10.101Z,97.70
2018-07-11T05:55:38.491Z,98.00
2018-07-11T05:58:06.796Z,96.90
2018-07-11T06:00:35.132Z,97.00
2018-07-11T06:03:03.493Z,96.40
2018-07-11T06:05:32.010Z,97.40
2018-07-11T06:08:00.264Z,96.70
2018-07-11T06:10:28.610Z,96.90
2018-07-11T06:12:56.978Z,96.20
2018-07-11T06:15:25.320Z,95.70
2018-07-11T06:17:53.640Z,94.70
2018-07-11T06:20:21.993Z,92.30
2018-07-11T06:22:50.634Z,91.70
2018-07-11T06:25:18.973Z,93.50
2018-07-11T06:27:47.312Z,94.40
2018-07-11T06:30:15.698Z,94.80
2018-07-11T06:32:44.050Z,95.00
2018-07-11T06:35:12.414Z,94.30
2018-07-11T06:37:40.740Z,94.30
2018-07-11T06:40:09.153Z,95.20
2018-07-11T06:42:37.493Z,95.60
2018-07-11T06:45:05.885Z,95.50
2018-07-11T06:47:34.213Z,96.30
2018-07-11T06:50:02.585Z,96.50
2018-07-11T06:52:30.984Z,95.70
2018-07-11T06:54:59.369Z,94.40
2018-07-11T06:57:29.225Z,92.80
2018-07-11T06:59:57.573Z,92.70
2018-07-11T07:02:25.946Z,93.20
2018-07-11T07:04:54.346Z,91.80
2018-07-11T07:07:22.692Z,90.90
2018-07-11T07:09:51.057Z,91.00
2018-07-11T07:12:19.405Z,89.90
2018-07-11T07:14:47.765Z,89.80
2018-07-11T07:17:16.112Z,88.30
2018-07-11T07:19:44.491Z,87.00
2018-07-11T07:22:12.840Z,87.40
2018-07-11T07:24:41.224Z,85.60
2018-07-11T07:27:09.601Z,83.50
2018-07-11T07:29:37.936Z,84.30
2018-07-11T07:32:06.329Z,86.90
2018-07-11T07:34:34.706Z,87.00
2018-07-11T07:37:03.077Z,88.30
2018-07-11T07:39:31.486Z,90.50
2018-07-11T07:41:59.890Z,89.10
2018-07-11T07:44:28.244Z,90.50
2018-07-11T07:46:59.683Z,91.40
2018-07-11T07:49:28.925Z,90.60
2018-07-11T07:51:57.749Z,91.30
2018-07-11T07:54:26.413Z,92.00
2018-07-11T07:56:54.821Z,91.30
2018-07-11T07:59:24.270Z,90.80
2018-07-11T08:01:52.729Z,91.50
2018-07-11T08:04:21.125Z,90.10
2018-07-11T08:06:49.515Z,90.00
2018-07-11T08:09:17.966Z,91.20
2018-07-11T08:11:46.348Z,89.30
2018-07-11T08:14:14.678Z,88.30
2018-07-11T08:16:43.065Z,88.10
2018-07-11T08:19:11.389Z,86.40
2018-07-11T08:21:39.743Z,84.90
2018-07-11T08:24:19.385Z,84.20
2018-07-11T08:27:19.748Z,84.20
2018-07-11T08:30:00.154Z,84.80
2018-07-11T08:32:45.419Z,84.90
2018-07-11T08:35:26.973Z,84.10
2018-07-11T08:38:10.617Z,84.20
2018-07-11T08:40:51.892Z,84.20
2018-07-11T08:43:32.100Z,82.40
2018-07-11T08:46:17.737Z,82.60
2018-07-11T08:51:09.640Z,84.70
2018-07-11T08:54:21.573Z,82.20
2018-07-11T08:59:00.961Z,83.40
2018-07-11T09:03:46.025Z,83.00
2018-07-11T09:06:31.141Z,82.60
2018-07-11T09:11:45.592Z,81.10
2018-07-11T09:14:27.317Z,83.70
2018-07-11T09:18:10.809Z,82.70
2018-07-11T09:21:26.083Z,81.00
2018-07-11T09:24:02.726Z,81.60
2018-07-11T09:26:31.069Z,78.40
2018-07-11T09:28:59.416Z,78.50
2018-07-11T09:31:27.809Z,79.20
2018-07-11T09:33:57.169Z,80.30
2018-07-11T09:36:25.550Z,79.00
2018-07-11T09:38:54.364Z,79.80
2018-07-11T09:41:22.709Z,81.50
2018-07-11T09:43:51.077Z,79.10
2018-07-11T09:46:19.489Z,78.20
2018-07-11T09:48:47.901Z,77.50
2018-07-11T09:51:16.304Z,77.00
2018-07-11T09:53:44.831Z,77.90
2018-07-11T09:56:13.261Z,76.50
2018-07-11T09:58:42.005Z,77.40
2018-07-11T10:01:15.905Z,76.50
2018-07-11T10:03:44.322Z,76.00
2018-07-11T10:06:12.781Z,76.30
2018-07-11T10:08:41.173Z,73.80
2018-07-11T10:11:09.526Z,74.30
2018-07-11T10:13:37.968Z,74.80
2018-07-11T10:16:06.338Z,74.00
2018-07-11T10:18:34.725Z,74.10
2018-07-11T10:21:03.090Z,73.20
2018-07-11T10:23:31.453Z,72.90
2018-07-11T10:25:59.898Z,73.00
2018-07-11T10:28:28.270Z,72.80
2018-07-11T10:30:56.668Z,74.10
2018-07-11T10:33:25.059Z,75.20
2018-07-11T10:35:53.597Z,74.50
2018-07-11T10:38:21.953Z,73.40
2018-07-11T10:40:50.416Z,71.30
2018-07-11T10:43:18.802Z,73.10
2018-07-11T10:45:47.180Z,71.10
2018-07-11T10:48:15.565Z,68.70
2018-07-11T10:50:43.919Z,67.90
2018-07-11T10:53:12.369Z,69.40
2018-07-11T10:55:40.745Z,69.60
2018-07-11T10:58:09.097Z,68.00
2018-07-11T11:00:37.752Z,67.30
2018-07-11T11:03:06.151Z,67.90
2018-07-11T11:05:34.505Z,70.40
2018-07-11T11:08:02.956Z,69.70
2018-07-11T11:10:31.304Z,70.50
2018-07-11T11:12:59.669Z,67.60
2018-07-11T11:15:28.030Z,65.80
2018-07-11T11:17:56.401Z,67.40
2018-07-11T11:20:24.812Z,68.30
2018-07-11T11:22:53.229Z,66.10
2018-07-11T11:25:21.612Z,66.10
2018-07-11T11:27:50.008Z,64.30
2018-07-11T11:30:18.374Z,66.20
2018-07-11T11:32:46.753Z,65.10
2018-07-11T11:35:15.105Z,65.90
2018-07-11T11:37:43.520Z,64.70
2018-07-11T11:40:11.864Z,64.30
2018-07-11T11:42:40.643Z,63.70
2018-07-11T11:45:08.981Z,64.30
2018-07-11T11:47:37.421Z,63.80
2018-07-11T11:50:05.826Z,65.10
2018-07-11T11:52:34.276Z,64.70
2018-07-11T11:55:02.629Z,63.80
2018-07-11T11:57:31.111Z,63.40
2018-07-11T11:59:59.504Z,64.40
2018-07-11T12:02:27.892Z,63.50
2018-07-11T12:04:56.381Z,63.20
2018-07-11T12:07:24.733Z,63.10
2018-07-11T12:09:53.114Z,63.30
2018-07-11T12:12:21.500Z,62.20
2018-07-11T12:14:49.849Z,62.60
2018-07-11T12:17:18.241Z,61.90
2018-07-11T12:19:47.344Z,61.10
2018-07-11T12:22:22.802Z,61.20
2018-07-11T12:24:51.632Z,61.30
2018-07-11T12:27:20.221Z,62.20
2018-07-11T12:29:49.408Z,61.40
2018-07-11T12:32:17.745Z,61.00
2018-07-11T12:34:46.262Z,60.50
2018-07-11T12:37:15.546Z,60.70
2018-07-11T12:39:44.178Z,59.80
2018-07-11T12:42:12.590Z,59.70
2018-07-11T12:44:40.969Z,60.00
2018-07-11T12:47:14.730Z,60.70
2018-07-11T12:49:43.156Z,60.20
2018-07-11T12:52:11.565Z,58.00
2018-07-11T12:54:39.973Z,59.20
2018-07-11T12:57:08.774Z,58.40
2018-07-11T12:59:37.242Z,59.50
2018-07-11T13:02:05.647Z,59.80
2018-07-11T13:04:34.106Z,60.30
2018-07-11T13:07:03.117Z,60.30
2018-07-11T13:09:31.538Z,60.90
2018-07-11T13:12:00.491Z,59.90
2018-07-11T13:14:28.845Z,60.90
2018-07-11T13:16:57.262Z,62.00
2018-07-11T13:19:25.653Z,61.90
2018-07-11T13:21:54.097Z,62.70
2018-07-11T13:24:22.445Z,63.00
2018-07-11T13:26:50.818Z,64.20
2018-07-11T13:31:47.541Z,64.40
2018-07-11T13:34:15.964Z,65.00
2018-07-11T13:36:44.360Z,64.90
2018-07-11T13:39:17.892Z,65.30
2018-07-11T13:41:47.033Z,66.00
2018-07-11T13:44:15.405Z,66.50
2018-07-11T13:46:43.816Z,67.00
2018-07-11T13:49:12.774Z,67.70
2018-07-11T13:51:41.216Z,67.60
2018-07-11T13:54:09.965Z,67.80
2018-07-11T13:56:38.325Z,67.70
2018-07-11T13:59:06.697Z,68.30
2018-07-11T14:01:35.105Z,67.90
2018-07-11T14:04:03.792Z,67.50
2018-07-11T14:06:32.162Z,68.20
2018-07-11T14:09:01.180Z,68.20
2018-07-11T14:11:29.521Z,68.30
2018-07-11T14:13:57.975Z,67.90
2018-07-11T14:16:26.338Z,68.60
2018-07-11T14:18:54.753Z,67.60
2018-07-11T14:21:23.337Z,67.80
2018-07-11T14:23:52.041Z,68.30
2018-07-11T14:26:20.846Z,68.90
2018-07-11T14:28:50.489Z,68.80
2018-07-11T14:31:36.097Z,69.30
2018-07-11T14:34:07.269Z,69.00
2018-07-11T14:36:36.076Z,68.70
2018-07-11T14:39:05.718Z,69.40
2018-07-11T14:41:34.212Z,69.30
2018-07-11T14:44:02.633Z,69.60
2018-07-11T14:46:31.446Z,69.60
2018-07-11T14:49:00.241Z,69.90
2018-07-11T14:51:28.774Z,70.00
2018-07-11T14:53:57.764Z,69.80
2018-07-11T14:56:26.171Z,69.40
2018-07-11T14:58:56.446Z,69.70
2018-07-11T15:01:25.156Z,70.20
2018-07-11T15:03:53.845Z,70.80
2018-07-11T15:06:23.088Z,70.50
2018-07-11T15:08:51.893Z,71.70
2018-07-11T15:11:20.716Z,71.40
2018-07-11T15:13:49.272Z,72.40
2018-07-11T15:16:17.949Z,76.40
2018-07-11T15:18:46.548Z,80.60
2018-07-11T15:21:15.261Z,82.60
2018-07-11T15:23:43.674Z,84.40
2018-07-11T15:26:12.121Z,85.30
2018-07-11T15:28:40.665Z,87.70
2018-07-11T15:31:09.053Z,87.50
2018-07-11T15:33:37.457Z,89.30
2018-07-11T15:36:05.837Z,89.00
2018-07-11T15:38:34.230Z,89.80
2018-07-11T15:41:02.641Z,89.80
2018-07-11T15:43:31.100Z,90.70
2018-07-11T15:45:59.820Z,91.30
2018-07-11T15:48:28.616Z,90.80
2018-07-11T15:50:57.248Z,90.30
2018-07-11T15:53:27.167Z,91.20
2018-07-11T15:55:55.601Z,90.70
2018-07-11T15:58:26.519Z,90.80
2018-07-11T16:00:55.517Z,89.90
2018-07-11T16:03:26.049Z,90.50
2018-07-11T16:05:55.608Z,90.30
2018-07-11T16:08:23.977Z,89.90
2018-07-11T16:10:54.121Z,89.70
2018-07-11T16:13:22.572Z,87.10
2018-07-11T16:15:51.053Z,83.80
2018-07-11T16:18:19.378Z,89.10
2018-07-11T16:20:47.864Z,89.40
2018-07-11T16:23:16.264Z,89.00
2018-07-11T16:25:44.966Z,89.70
2018-07-11T16:28:13.402Z,89.20
2018-07-11T16:30:41.799Z,90.20
2018-07-11T16:33:10.174Z,89.60
2018-07-11T16:35:38.617Z,90.40
2018-07-11T16:38:07.001Z,90.00
2018-07-11T16:40:35.393Z,90.40
2018-07-11T16:43:04.019Z,91.60
2018-07-11T16:45:32.461Z,91.80
2018-07-11T16:48:01.087Z,91.50
2018-07-11T16:50:29.521Z,90.40
2018-07-11T16:52:58.210Z,92.50
2018-07-11T16:55:27.292Z,91.70
2018-07-11T16:57:56.292Z,92.00
2018-07-11T17:00:33.592Z,89.00
2018-07-11T17:03:10.059Z,92.50
2018-07-11T17:05:48.041Z,92.70
2018-07-11T17:08:18.558Z,92.70
2018-07-11T17:10:46.989Z,92.90
2018-07-11T17:13:20.832Z,92.70
2018-07-11T17:15:50.631Z,92.90
2018-07-11T17:18:52.348Z,92.60
2018-07-11T17:21:34.620Z,92.50
2018-07-11T17:24:06.865Z,94.30
2018-07-11T17:26:35.945Z,94.80
2018-07-11T17:29:04.420Z,95.20
2018-07-11T17:31:34.610Z,96.20
2018-07-11T17:34:04.005Z,94.30
2018-07-11T17:36:33.946Z,94.10
2018-07-11T17:39:04.440Z,94.30
2018-07-11T17:41:33.350Z,95.30
2018-07-11T17:44:03.204Z,96.10
2018-07-11T17:46:32.613Z,94.80
2018-07-11T17:49:12.561Z,96.30
2018-07-11T17:51:49.934Z,96.00
2018-07-11T17:54:18.382Z,95.40
2018-07-11T17:56:54.340Z,96.90
2018-07-11T17:59:29.016Z,96.80
2018-07-11T18:01:58.517Z,96.60
2018-07-11T18:04:39.026Z,96.40
2018-07-11T18:07:14.661Z,97.10
2018-07-11T18:09:54.379Z,97.20
2018-07-11T18:12:24.885Z,96.70
2018-07-11T18:15:17.808Z,96.60
2018-07-11T18:18:22.978Z,96.50
2018-07-11T18:20:56.605Z,96.80
2018-07-11T18:23:37.985Z,98.00
2018-07-11T18:26:46.941Z,97.50
2018-07-11T18:29:26.709Z,98.50
2018-07-11T18:33:06.698Z,98.70
2018-07-11T18:36:53.900Z,99.20
2018-07-11T18:40:07.641Z,99.00
2018-07-11T18:42:41.998Z,98.20
2018-07-11T18:46:48.593Z,97.40
2018-07-11T18:49:26.057Z,97.20
2018-07-11T18:52:39.737Z,97.80
2018-07-11T18:55:15.566Z,97.90
2018-07-11T18:57:58.662Z,98.10
2018-07-11T19:00:38.450Z,98.10
2018-07-11T19:03:32.649Z,98.20
2018-07-11T19:06:15.962Z,97.90
2018-07-11T19:09:24.237Z,98.80
2018-07-11T19:11:55.941Z,99.00
2018-07-11T19:14:35.070Z,98.80
2018-07-11T19:17:28.713Z,98.40
2018-07-11T19:20:13.745Z,97.90
2018-07-11T19:22:49.397Z,98.00
2018-07-11T19:25:33.314Z,98.00
2018-07-11T19:28:22.521Z,97.60
2018-07-11T19:31:01.810Z,97.60
2018-07-11T19:33:41.664Z,97.60
2018-07-11T19:36:18.456Z,97.40
2018-07-11T19:39:01.892Z,97.40
2018-07-11T19:41:44.782Z,97.10
2018-07-11T19:46:28.780Z,96.90
2018-07-11T19:49:07.821Z,97.10
2018-07-11T19:51:46.560Z,96.90
2018-07-11T19:54:24.093Z,96.90
2018-07-11T19:56:52.728Z,96.80
2018-07-11T19:59:21.273Z,96.40
2018-07-11T20:01:49.656Z,96.60
2018-07-11T20:04:18.188Z,96.80
2018-07-11T20:06:46.590Z,97.60
2018-07-11T20:09:15.253Z,98.00
2018-07-11T20:11:43.658Z,97.30
2018-07-11T20:14:12.113Z,97.30
2018-07-11T20:16:40.524Z,97.10
2018-07-11T20:19:08.996Z,97.20
2018-07-11T20:21:37.346Z,97.50
2018-07-11T20:24:05.712Z,97.40
2018-07-11T20:26:34.097Z,97.20
2018-07-11T20:29:02.633Z,96.80
2018-07-11T20:31:30.984Z,96.70
2018-07-11T20:33:59.342Z,96.60
2018-07-11T20:36:27.813Z,96.90
2018-07-11T20:38:56.881Z,97.40
2018-07-11T20:41:25.289Z,97.00
2018-07-11T20:43:53.890Z,97.30
2018-07-11T20:46:22.346Z,96.80
2018-07-11T20:48:50.926Z,97.30
2018-07-11T20:51:19.469Z,97.00
2018-07-11T20:53:47.890Z,98.20
2018-07-11T20:56:16.241Z,98.90
2018-07-11T20:58:55.973Z,98.70
2018-07-11T21:01:35.608Z,98.10
2018-07-11T21:04:15.482Z,99.10
2018-07-11T21:06:55.241Z,99.70
2018-07-11T21:10:36.149Z,99.90
2018-07-11T21:13:23.460Z,99.30
2018-07-11T21:18:16.397Z,99.50
2018-07-11T21:20:44.769Z,99.10
2018-07-11T21:23:13.128Z,99.00
2018-07-11T21:25:41.484Z,98.90
2018-07-11T21:28:09.853Z,99.20
2018-07-11T21:30:38.197Z,99.40
2018-07-11T21:33:06.558Z,99.70
2018-07-11T21:35:35.100Z,99.30
2018-07-11T21:38:03.824Z,99.20
2018-07-11T21:40:32.238Z,99.10
2018-07-11T21:43:00.608Z,98.60
2018-07-11T21:45:29.026Z,98.10
2018-07-11T21:47:57.384Z,98.30
2018-07-11T21:50:25.757Z,99.10
2018-07-11T21:52:54.090Z,99.00
2018-07-11T21:55:22.465Z,98.90
2018-07-11T21:57:50.788Z,99.00
2018-07-11T22:00:30.537Z,98.90
2018-07-11T22:02:58.929Z,98.40
2018-07-11T22:05:28.433Z,98.20
2018-07-11T22:07:56.866Z,98.20
2018-07-11T22:10:25.420Z,98.50
2018-07-11T22:12:53.753Z,98.90
2018-07-11T22:15:22.121Z,98.70
2018-07-11T22:18:01.757Z,98.60
2018-07-11T22:20:29.392Z,98.70
2018-07-11T22:22:56.641Z,99.00
2018-07-11T22:25:23.909Z,98.50
2018-07-11T22:27:51.177Z,98.40
2018-07-11T22:30:18.445Z,99.00
2018-07-11T22:32:45.709Z,98.60
2018-07-11T22:35:13.037Z,98.80
2018-07-11T22:37:40.321Z,98.90
2018-07-11T22:40:07.661Z,98.90
2018-07-11T22:42:34.908Z,98.70
2018-07-11T22:45:02.209Z,98.80
2018-07-11T22:47:29.485Z,98.80
2018-07-11T22:49:58.872Z,98.60
2018-07-11T22:52:27.595Z,98.80
2018-07-11T22:54:55.172Z,99.20
2018-07-11T22:57:22.440Z,99.20
2018-07-11T22:59:50.446Z,98.80
2018-07-11T23:02:17.913Z,98.70
2018-07-11T23:04:45.190Z,99.00
2018-07-11T23:07:12.449Z,99.10
2018-07-11T23:09:39.729Z,98.80
2018-07-11T23:12:07.142Z,98.60
2018-07-11T23:14:34.728Z,99.00
2018-07-11T23:17:02.904Z,98.90
2018-07-11T23:19:30.406Z,99.00
2018-07-11T23:21:58.190Z,98.60
2018-07-11T23:24:25.677Z,98.70
2018-07-11T23:26:53.149Z,98.90
2018-07-11T23:29:20.640Z,98.90
2018-07-11T23:31:47.926Z,98.60
2018-07-11T23:34:15.197Z,98.80
2018-07-11T23:36:42.452Z,98.60
2018-07-11T23:39:10.768Z,98.80
2018-07-11T23:41:38.057Z,98.80
2018-07-11T23:44:05.437Z,99.10
2018-07-11T23:46:32.713Z,99.00
2018-07-11T23:48:59.964Z,98.70
2018-07-11T23:51:27.255Z,98.50
2018-07-11T23:53:54.509Z,98.50
2018-07-11T23:56:21.784Z,98.50
2018-07-11T23:58:49.041Z,98.80
